Time;durP1;ratioP1;P1;durP2;ratioP2;P2;SDS_P1;SDS_P2;PMS_P1;PMS_P2;Temp;Humidity;BMP_temperature;BMP_pressure;BME280_temperature;BME280_humidity;BME280_pressure;Samples;Min_cycle;Max_cycle;Signal;HPM_P1;HPM_P2
2021/08/05 00:02:22;;;;;;;6.18;3.20;;;;;;;;;;4960988;28;20035;-75
2021/08/05 00:04:47;;;;;;;8.40;3.60;;;;;;;;;;4949830;28;20030;-74
2021/08/05 00:07:13;;;;;;;5.32;3.00;;;;;;;;;;4947570;28;20043;-74
2021/08/05 00:09:39;;;;;;;5.47;3.38;;;;;;;;;;4964077;28;20038;-74
2021/08/05 00:12:06;;;;;;;5.60;3.17;;;;;;;;;;4966442;28;20073;-74
2021/08/05 00:14:34;;;;;;;6.57;2.70;;;;;;;;;;4965301;28;20248;-74
2021/08/05 00:16:59;;;;;;;5.82;3.00;;;;;;;;;;4935328;28;20023;-74
2021/08/05 00:19:24;;;;;;;5.53;2.83;;;;;;;;;;4963055;28;20034;-73
2021/08/05 00:21:50;;;;;;;6.35;3.30;;;;;;;;;;4966421;28;20043;-74
2021/08/05 00:24:15;;;;;;;7.00;3.30;;;;;;;;;;4934983;28;20018;-73
2021/08/05 00:26:40;;;;;;;6.38;3.42;;;;;;;;;;4967038;28;20663;-73
2021/08/05 00:29:05;;;;;;;5.60;3.33;;;;;;;;;;4935332;28;20097;-73
2021/08/05 00:31:31;;;;;;;4.70;2.95;;;;;;;;;;4953215;28;20499;-73
2021/08/05 00:33:56;;;;;;;4.53;2.65;;;;;;;;;;4964998;28;20041;-73
2021/08/05 00:36:22;;;;;;;5.18;3.10;;;;;;;;;;4949015;28;20026;-73
2021/08/05 00:38:48;;;;;;;6.97;3.20;;;;;;;;;;4947594;28;20037;-73
2021/08/05 00:41:13;;;;;;;5.15;3.00;;;;;;;;;;4948421;28;20119;-73
2021/08/05 00:43:39;;;;;;;4.63;2.80;;;;;;;;;;4950592;28;20459;-73
2021/08/05 00:46:04;;;;;;;6.18;3.20;;;;;;;;;;4968713;28;20027;-73
2021/08/05 00:48:30;;;;;;;4.85;2.90;;;;;;;;;;4949475;28;20441;-73
2021/08/05 00:50:56;;;;;;;4.97;3.13;;;;;;;;;;4967015;28;20050;-72
2021/08/05 00:53:22;;;;;;;5.78;3.00;;;;;;;;;;4948092;28;20341;-73
2021/08/05 00:55:48;;;;;;;5.70;3.00;;;;;;;;;;4966475;28;20117;-74
2021/08/05 00:58:13;;;;;;;5.60;3.50;;;;;;;;;;4948056;28;20531;-72
2021/08/05 01:00:40;;;;;;;4.88;2.90;;;;;;;;;;4948433;28;20038;-72
2021/08/05 01:03:10;;;;;;;8.07;3.60;;;;;;;;;;4948717;28;20038;-73
2021/08/05 01:05:40;;;;;;;7.50;3.80;;;;;;;;;;4965801;28;20031;-72
2021/08/05 01:08:08;;;;;;;4.40;2.92;;;;;;;;;;4949334;28;20026;-73
2021/08/05 01:10:52;;;;;;;6.32;3.60;;;;;;;;;;4962426;28;20443;-73
2021/08/05 01:13:22;;;;;;;8.88;3.88;;;;;;;;;;4937085;28;20418;-72
2021/08/05 01:15:50;;;;;;;8.77;4.18;;;;;;;;;;4946452;28;20031;-73
2021/08/05 01:18:19;;;;;;;6.82;4.22;;;;;;;;;;4965401;28;20056;-73
2021/08/05 01:20:45;;;;;;;7.70;3.50;;;;;;;;;;4962130;28;20100;-73
2021/08/05 01:23:23;;;;;;;6.57;3.38;;;;;;;;;;4949360;28;20035;-72
2021/08/05 01:25:55;;;;;;;6.43;3.80;;;;;;;;;;4968211;28;20042;-72
2021/08/05 01:28:20;;;;;;;6.30;4.05;;;;;;;;;;4948993;28;20545;-75
2021/08/05 01:30:47;;;;;;;7.30;4.13;;;;;;;;;;4965403;28;20338;-73
2021/08/05 01:33:13;;;;;;;5.55;3.40;;;;;;;;;;4935491;28;20062;-73
2021/08/05 01:35:40;;;;;;;5.65;3.35;;;;;;;;;;4963931;28;20150;-72
2021/08/05 01:38:05;;;;;;;;;;;;;;;;;;4962980;28;20030;-74
2021/08/05 01:40:31;;;;;;;6.30;3.70;;;;;;;;;;4947306;28;20338;-73
2021/08/05 01:42:57;;;;;;;6.03;3.20;;;;;;;;;;4966301;28;20606;-73
2021/08/05 01:45:24;;;;;;;6.50;3.55;;;;;;;;;;4945408;28;20336;-74
2021/08/05 01:47:50;;;;;;;7.55;3.25;;;;;;;;;;4965010;28;20034;-73
2021/08/05 01:50:15;;;;;;;4.93;3.17;;;;;;;;;;4943645;28;20030;-73
2021/08/05 01:52:42;;;;;;;6.13;3.42;;;;;;;;;;4966257;28;20127;-73
2021/08/05 01:55:07;;;;;;;6.93;3.93;;;;;;;;;;4965340;28;20042;-73
2021/08/05 01:57:33;;;;;;;6.57;3.53;;;;;;;;;;4932476;28;20249;-73
2021/08/05 01:59:59;;;;;;;5.80;3.85;;;;;;;;;;4949235;28;20034;-74
2021/08/05 02:02:24;;;;;;;8.23;3.78;;;;;;;;;;4946687;28;20035;-73
2021/08/05 02:05:03;;;;;;;9.45;4.32;;;;;;;;;;4946657;28;20396;-73
2021/08/05 02:07:31;;;;;;;6.18;3.60;;;;;;;;;;4960956;28;20416;-74
2021/08/05 02:10:04;;;;;;;8.38;3.70;;;;;;;;;;4946624;28;20030;-73
2021/08/05 02:12:32;;;;;;;6.45;3.30;;;;;;;;;;4947930;28;20038;-73
2021/08/05 02:14:58;;;;;;;6.68;3.75;;;;;;;;;;4944540;28;20047;-73
2021/08/05 02:17:24;;;;;;;6.85;3.80;;;;;;;;;;4948404;28;20470;-73
2021/08/05 02:19:50;;;;;;;6.28;4.15;;;;;;;;;;4944697;28;20038;-73
2021/08/05 02:22:18;;;;;;;7.20;4.00;;;;;;;;;;4945314;28;20523;-73
2021/08/05 02:24:43;;;;;;;6.55;3.85;;;;;;;;;;4944424;28;20033;-73
2021/08/05 02:27:09;;;;;;;6.40;3.60;;;;;;;;;;4967059;28;20043;-73
2021/08/05 02:29:37;;;;;;;5.88;3.90;;;;;;;;;;4946786;28;20113;-73
2021/08/05 02:32:02;;;;;;;8.20;4.32;;;;;;;;;;4948674;28;20725;-72
2021/08/05 02:34:28;;;;;;;7.45;3.80;;;;;;;;;;4946360;28;20031;-73
2021/08/05 02:36:54;;;;;;;5.97;3.60;;;;;;;;;;4947640;28;20038;-73
2021/08/05 02:39:20;;;;;;;6.65;3.40;;;;;;;;;;4946032;28;20034;-73
2021/08/05 02:41:47;;;;;;;7.57;3.38;;;;;;;;;;4945390;28;20429;-73
2021/08/05 02:44:13;;;;;;;5.85;3.50;;;;;;;;;;4948283;28;20030;-73
2021/08/05 02:46:39;;;;;;;7.00;3.40;;;;;;;;;;4949366;28;20093;-73
2021/08/05 02:49:05;;;;;;;9.45;4.95;;;;;;;;;;4947118;28;20039;-73
2021/08/05 02:51:30;;;;;;;7.30;3.80;;;;;;;;;;4964452;28;20026;-74
2021/08/05 02:53:56;;;;;;;7.28;3.90;;;;;;;;;;4962808;28;20026;-73
2021/08/05 02:56:22;;;;;;;8.23;4.13;;;;;;;;;;4948494;28;20710;-74
2021/08/05 02:58:48;;;;;;;11.40;4.60;;;;;;;;;;4946325;28;20045;-74
2021/08/05 03:01:13;;;;;;;6.50;4.03;;;;;;;;;;4948227;28;20034;-73
2021/08/05 03:03:40;;;;;;;7.75;4.10;;;;;;;;;;4930935;28;20399;-74
2021/08/05 03:06:06;;;;;;;7.35;4.32;;;;;;;;;;4963964;28;20487;-73
2021/08/05 03:08:38;;;;;;;6.97;4.05;;;;;;;;;;4945589;28;20161;-74
2021/08/05 03:11:04;;;;;;;7.57;4.18;;;;;;;;;;4966246;28;20502;-73
2021/08/05 03:13:29;;;;;;;6.88;4.00;;;;;;;;;;4961332;28;20043;-74
2021/08/05 03:15:54;;;;;;;8.30;3.85;;;;;;;;;;4963334;28;20134;-72
2021/08/05 03:18:20;;;;;;;5.70;3.50;;;;;;;;;;4962916;28;20129;-73
2021/08/05 03:20:45;;;;;;;7.43;3.85;;;;;;;;;;4960209;28;20325;-73
2021/08/05 03:23:10;;;;;;;8.00;3.90;;;;;;;;;;4961156;28;20033;-73
2021/08/05 03:25:36;;;;;;;5.90;3.53;;;;;;;;;;4963960;28;20038;-73
2021/08/05 03:28:01;;;;;;;5.93;3.70;;;;;;;;;;4947177;28;20125;-73
2021/08/05 03:30:27;;;;;;;7.75;3.90;;;;;;;;;;4962881;28;20053;-73
2021/08/05 03:32:52;;;;;;;11.93;4.75;;;;;;;;;;4964942;28;20053;-74
2021/08/05 03:35:17;;;;;;;9.68;5.10;;;;;;;;;;4945153;28;20468;-73
2021/08/05 03:37:43;;;;;;;7.85;4.38;;;;;;;;;;4961018;28;20149;-74
2021/08/05 03:40:08;;;;;;;7.85;4.45;;;;;;;;;;4963247;28;20019;-74
2021/08/05 03:42:33;;;;;;;13.80;4.72;;;;;;;;;;4961342;28;20050;-73
2021/08/05 03:44:59;;;;;;;9.45;4.72;;;;;;;;;;4944656;28;20035;-73
2021/08/05 03:47:24;;;;;;;7.53;4.22;;;;;;;;;;4964015;28;20030;-73
2021/08/05 03:49:51;;;;;;;8.00;4.60;;;;;;;;;;4966429;28;20031;-73
2021/08/05 03:52:17;;;;;;;6.93;4.43;;;;;;;;;;4964657;28;20100;-73
2021/08/05 03:54:42;;;;;;;8.23;4.75;;;;;;;;;;4946310;28;20586;-73
2021/08/05 03:57:07;;;;;;;9.40;4.55;;;;;;;;;;4967254;28;20058;-73
2021/08/05 03:59:34;;;;;;;12.75;4.72;;;;;;;;;;4947296;28;20296;-74
2021/08/05 04:01:59;;;;;;;7.68;4.47;;;;;;;;;;4962085;28;20430;-73
2021/08/05 04:04:24;;;;;;;10.75;4.55;;;;;;;;;;4946006;28;20500;-73
2021/08/05 04:06:50;;;;;;;5.95;3.78;;;;;;;;;;4961708;28;20105;-74
2021/08/05 04:09:15;;;;;;;6.72;3.83;;;;;;;;;;4964914;28;20377;-73
2021/08/05 04:11:40;;;;;;;8.60;4.18;;;;;;;;;;4947992;28;20129;-73
2021/08/05 04:14:06;;;;;;;9.68;4.90;;;;;;;;;;4967843;28;20030;-74
2021/08/05 04:16:31;;;;;;;7.95;4.40;;;;;;;;;;4950898;28;20039;-73
2021/08/05 04:18:57;;;;;;;9.27;4.57;;;;;;;;;;4947069;28;20131;-73
2021/08/05 04:21:22;;;;;;;16.02;5.35;;;;;;;;;;4929719;28;20031;-73
2021/08/05 04:23:47;;;;;;;8.10;4.68;;;;;;;;;;4936182;28;20534;-73
2021/08/05 04:26:13;;;;;;;10.25;4.95;;;;;;;;;;4965043;28;20114;-73
2021/08/05 04:28:38;;;;;;;7.57;4.78;;;;;;;;;;4963743;28;20031;-73
2021/08/05 04:31:03;;;;;;;8.82;4.32;;;;;;;;;;4965988;28;20053;-73
2021/08/05 04:33:29;;;;;;;7.82;4.72;;;;;;;;;;4970919;28;20415;-73
2021/08/05 04:35:54;;;;;;;8.20;4.60;;;;;;;;;;4951894;28;20030;-73
2021/08/05 04:38:19;;;;;;;10.02;4.88;;;;;;;;;;4970203;28;20431;-73
2021/08/05 04:40:45;;;;;;;10.75;5.63;;;;;;;;;;4969828;28;20318;-73
2021/08/05 04:43:10;;;;;;;12.45;5.95;;;;;;;;;;4970569;28;20097;-73
2021/08/05 04:45:36;;;;;;;9.98;5.43;;;;;;;;;;4967655;28;20249;-73
2021/08/05 04:48:05;;;;;;;8.27;5.13;;;;;;;;;;4967195;28;20031;-73
2021/08/05 04:50:41;;;;;;;11.82;5.72;;;;;;;;;;4949416;28;20118;-73
2021/08/05 04:53:07;;;;;;;8.52;5.68;;;;;;;;;;4966780;28;20043;-74
2021/08/05 04:55:33;;;;;;;11.10;5.97;;;;;;;;;;4966099;28;20034;-72
2021/08/05 04:57:59;;;;;;;11.80;6.05;;;;;;;;;;4950854;28;20034;-72
2021/08/05 05:00:26;;;;;;;10.10;5.70;;;;;;;;;;4964030;28;20037;-74
2021/08/05 05:02:51;;;;;;;10.48;5.32;;;;;;;;;;4968085;28;20034;-74
2021/08/05 05:05:17;;;;;;;10.60;5.10;;;;;;;;;;4964865;28;20065;-74
2021/08/05 05:07:42;;;;;;;8.93;5.30;;;;;;;;;;4945506;28;20394;-73
2021/08/05 05:10:08;;;;;;;7.60;4.63;;;;;;;;;;4962567;28;20568;-74
2021/08/05 05:12:34;;;;;;;8.45;4.63;;;;;;;;;;4955571;28;20295;-72
2021/08/05 05:15:00;;;;;;;8.70;4.95;;;;;;;;;;4963900;28;20039;-73
2021/08/05 05:17:25;;;;;;;9.02;4.93;;;;;;;;;;4965548;28;20125;-74
2021/08/05 05:19:50;;;;;;;9.18;4.85;;;;;;;;;;4964641;28;20099;-73
2021/08/05 05:22:18;;;;;;;8.15;4.28;;;;;;;;;;4964932;28;20493;-74
2021/08/05 05:24:44;;;;;;;9.48;4.25;;;;;;;;;;4946283;28;20031;-73
2021/08/05 05:27:09;;;;;;;8.05;4.40;;;;;;;;;;4964530;28;20037;-74
2021/08/05 05:29:36;;;;;;;9.98;4.65;;;;;;;;;;4964633;28;20145;-73
2021/08/05 05:32:02;;;;;;;8.20;4.70;;;;;;;;;;4966949;28;20507;-73
2021/08/05 05:34:28;;;;;;;9.38;4.30;;;;;;;;;;4965447;28;20510;-74
2021/08/05 05:36:54;;;;;;;11.23;5.13;;;;;;;;;;4966650;28;20039;-74
2021/08/05 05:39:21;;;;;;;6.53;4.10;;;;;;;;;;4963507;28;20453;-73
2021/08/05 05:41:47;;;;;;;7.43;3.88;;;;;;;;;;4964485;28;20420;-72
2021/08/05 05:44:12;;;;;;;7.25;4.20;;;;;;;;;;4946742;28;20215;-73
2021/08/05 05:46:37;;;;;;;9.18;4.78;;;;;;;;;;4963183;28;20118;-73
2021/08/05 05:49:03;;;;;;;11.40;4.30;;;;;;;;;;4955291;28;20063;-72
2021/08/05 05:51:28;;;;;;;9.93;4.60;;;;;;;;;;4948444;28;20108;-72
2021/08/05 05:53:53;;;;;;;7.50;4.30;;;;;;;;;;4966882;28;20042;-73
2021/08/05 05:56:19;;;;;;;7.82;4.32;;;;;;;;;;4954453;28;20109;-74
2021/08/05 05:58:44;;;;;;;8.02;4.88;;;;;;;;;;4962830;28;20888;-73
2021/08/05 06:01:10;;;;;;;10.13;5.10;;;;;;;;;;4946468;28;20518;-73
2021/08/05 06:03:35;;;;;;;8.93;4.60;;;;;;;;;;4964314;28;20445;-73
2021/08/05 06:06:00;;;;;;;7.10;4.03;;;;;;;;;;4964418;28;20539;-73
2021/08/05 06:08:26;;;;;;;7.50;3.97;;;;;;;;;;4963497;28;20034;-74
2021/08/05 06:10:51;;;;;;;7.38;4.05;;;;;;;;;;4963904;28;20053;-73
2021/08/05 06:13:16;;;;;;;8.98;4.70;;;;;;;;;;4965362;28;20092;-73
2021/08/05 06:15:42;;;;;;;9.30;4.35;;;;;;;;;;4945807;28;20320;-74
2021/08/05 06:18:07;;;;;;;5.68;3.30;;;;;;;;;;4964002;28;20081;-73
2021/08/05 06:20:32;;;;;;;8.43;4.43;;;;;;;;;;4937623;28;20129;-69
2021/08/05 06:22:58;;;;;;;7.03;3.85;;;;;;;;;;4962697;28;20037;-71
2021/08/05 06:25:23;;;;;;;7.95;4.07;;;;;;;;;;4955666;28;20468;-73
2021/08/05 06:27:48;;;;;;;9.45;4.82;;;;;;;;;;4941623;28;20068;-72
2021/08/05 06:30:14;;;;;;;6.90;3.85;;;;;;;;;;4960419;28;20023;-72
2021/08/05 06:32:40;;;;;;;7.28;3.97;;;;;;;;;;4962351;28;20096;-72
2021/08/05 06:35:05;;;;;;;5.32;3.30;;;;;;;;;;4965007;28;20508;-75
2021/08/05 06:37:33;;;;;;;6.72;3.60;;;;;;;;;;4963033;28;20045;-74
2021/08/05 06:39:59;;;;;;;8.13;3.80;;;;;;;;;;4964118;28;20033;-69
2021/08/05 06:42:24;;;;;;;9.65;4.32;;;;;;;;;;4961016;28;20035;-72
2021/08/05 06:44:51;;;;;;;7.22;4.00;;;;;;;;;;4964937;28;20065;-77
2021/08/05 06:47:18;;;;;;;10.70;4.10;;;;;;;;;;4960371;28;20535;-70
2021/08/05 06:49:44;;;;;;;8.77;4.20;;;;;;;;;;4962444;28;20041;-75
2021/08/05 06:52:09;;;;;;;9.85;4.07;;;;;;;;;;4968640;28;20573;-76
2021/08/05 06:54:35;;;;;;;9.07;4.07;;;;;;;;;;4961010;28;20058;-74
2021/08/05 06:57:00;;;;;;;6.75;3.90;;;;;;;;;;4963818;28;20703;-73
2021/08/05 06:59:25;;;;;;;6.80;3.90;;;;;;;;;;4963235;28;20336;-70
2021/08/05 07:01:51;;;;;;;7.68;4.30;;;;;;;;;;4941455;28;20125;-76
2021/08/05 07:04:16;;;;;;;8.13;3.80;;;;;;;;;;4954350;28;20026;-78
2021/08/05 07:06:41;;;;;;;7.15;3.67;;;;;;;;;;4962501;28;20035;-78
2021/08/05 07:09:07;;;;;;;8.32;3.78;;;;;;;;;;4958980;28;20122;-82
2021/08/05 07:11:33;;;;;;;7.30;3.53;;;;;;;;;;4962259;28;20498;-74
2021/08/05 07:13:58;;;;;;;7.45;3.78;;;;;;;;;;4963620;28;20034;-74
2021/08/05 07:16:23;;;;;;;7.22;3.50;;;;;;;;;;4960131;28;20081;-81
2021/08/05 07:18:49;;;;;;;13.50;3.85;;;;;;;;;;4944951;28;20038;-80
2021/08/05 07:21:14;;;;;;;8.27;3.70;;;;;;;;;;4943863;28;20039;-79
2021/08/05 07:23:39;;;;;;;5.95;3.28;;;;;;;;;;4944252;28;20089;-73
2021/08/05 07:26:05;;;;;;;5.97;3.60;;;;;;;;;;4959531;28;20754;-73
2021/08/05 07:28:30;;;;;;;7.05;3.80;;;;;;;;;;4958895;28;20029;-73
2021/08/05 07:30:56;;;;;;;5.97;3.30;;;;;;;;;;4961228;28;20489;-72
2021/08/05 07:33:21;;;;;;;7.28;3.55;;;;;;;;;;4959822;28;20555;-72
2021/08/05 07:35:49;;;;;;;6.65;3.85;;;;;;;;;;4945106;28;20447;-71
2021/08/05 07:38:14;;;;;;;8.55;4.10;;;;;;;;;;4943134;28;20549;-76
2021/08/05 07:40:40;;;;;;;7.30;3.92;;;;;;;;;;4960678;28;20058;-71
2021/08/05 07:43:05;;;;;;;7.97;3.92;;;;;;;;;;4961331;28;20365;-74
2021/08/05 07:45:32;;;;;;;6.20;3.50;;;;;;;;;;4965628;28;20030;-73
2021/08/05 07:47:57;;;;;;;6.18;3.50;;;;;;;;;;4951168;28;20114;-73
2021/08/05 07:50:22;;;;;;;9.10;4.47;;;;;;;;;;4948128;28;20129;-74
2021/08/05 07:52:48;;;;;;;6.72;4.18;;;;;;;;;;4967506;28;20328;-80
2021/08/05 07:55:13;;;;;;;6.38;3.70;;;;;;;;;;4929653;28;20041;-77
2021/08/05 07:57:39;;;;;;;8.07;4.10;;;;;;;;;;4965257;28;20084;-77
2021/08/05 08:00:05;;;;;;;7.43;3.90;;;;;;;;;;4931974;28;20042;-75
2021/08/05 08:02:40;;;;;;;7.07;3.88;;;;;;;;;;4967417;28;20047;-75
2021/08/05 08:05:06;;;;;;;7.20;3.83;;;;;;;;;;4947229;28;20544;-77
2021/08/05 08:07:38;;;;;;;7.55;3.70;;;;;;;;;;4964945;28;20050;-74
2021/08/05 08:10:04;;;;;;;5.85;3.72;;;;;;;;;;4964008;28;20041;-72
2021/08/05 08:12:29;;;;;;;6.60;3.60;;;;;;;;;;4964324;28;20548;-72
2021/08/05 08:14:55;;;;;;;6.35;3.80;;;;;;;;;;4946014;28;20015;-74
2021/08/05 08:17:20;;;;;;;8.82;4.18;;;;;;;;;;4965020;28;20022;-74
2021/08/05 08:19:45;;;;;;;8.98;4.40;;;;;;;;;;4963223;28;20035;-74
2021/08/05 08:22:11;;;;;;;6.07;3.88;;;;;;;;;;4943201;28;20351;-73
2021/08/05 08:24:36;;;;;;;5.95;3.75;;;;;;;;;;4944522;28;20061;-71
2021/08/05 08:27:02;;;;;;;7.05;3.85;;;;;;;;;;4946549;28;20125;-69
2021/08/05 08:29:29;;;;;;;7.70;3.60;;;;;;;;;;4962449;28;20058;-69
2021/08/05 08:31:55;;;;;;;5.78;3.25;;;;;;;;;;4968070;28;20496;-69
2021/08/05 08:34:20;;;;;;;6.18;3.05;;;;;;;;;;4964381;28;20528;-68
2021/08/05 08:36:45;;;;;;;5.22;3.10;;;;;;;;;;4965374;28;20026;-69
2021/08/05 08:39:12;;;;;;;6.18;3.35;;;;;;;;;;4964918;28;20034;-72
2021/08/05 08:41:39;;;;;;;7.77;3.60;;;;;;;;;;4965125;28;20293;-70
2021/08/05 08:44:04;;;;;;;;;;;;;;;;;;4964456;28;20241;-71
2021/08/05 08:46:34;;;;;;;7.40;3.73;;;;;;;;;;4964955;28;19918;-73
2021/08/05 08:49:02;;;;;;;7.90;3.38;;;;;;;;;;4964004;28;20530;-71
2021/08/05 08:51:29;;;;;;;10.27;3.90;;;;;;;;;;4948415;28;20516;-71
2021/08/05 08:53:55;;;;;;;;;;;;;;;;;;4960607;28;20483;-69
2021/08/05 08:56:21;;;;;;;7.53;3.53;;;;;;;;;;4962484;28;19922;-70
2021/08/05 08:58:46;;;;;;;8.55;3.35;;;;;;;;;;4965466;28;20041;-71
2021/08/05 09:01:11;;;;;;;6.70;3.60;;;;;;;;;;4964670;28;20027;-71
2021/08/05 09:03:38;;;;;;;7.57;4.13;;;;;;;;;;4968153;28;20058;-69
2021/08/05 09:06:03;;;;;;;7.13;3.58;;;;;;;;;;4962697;28;20468;-70
2021/08/05 09:08:29;;;;;;;5.00;3.57;;;;;;;;;;4961896;28;20080;-72
2021/08/05 09:10:57;;;;;;;16.08;4.80;;;;;;;;;;4946882;28;20228;-71
2021/08/05 09:13:23;;;;;;;7.45;3.50;;;;;;;;;;4963280;28;20062;-71
2021/08/05 09:15:48;;;;;;;7.72;3.60;;;;;;;;;;4961250;28;20203;-70
2021/08/05 09:18:25;;;;;;;6.40;3.60;;;;;;;;;;4944557;28;20027;-72
2021/08/05 09:21:09;;;;;;;11.80;4.30;;;;;;;;;;4934656;28;20038;-71
2021/08/05 09:23:53;;;;;;;8.63;3.40;;;;;;;;;;4961933;28;20046;-71
2021/08/05 09:26:21;;;;;;;6.53;3.45;;;;;;;;;;4962111;28;20423;-70
2021/08/05 09:28:59;;;;;;;9.13;3.92;;;;;;;;;;4965178;28;20037;-70
2021/08/05 09:31:24;;;;;;;7.93;4.10;;;;;;;;;;4966872;28;20042;-71
2021/08/05 09:33:50;;;;;;;9.43;4.70;;;;;;;;;;4948618;28;20483;-72
2021/08/05 09:36:22;;;;;;;9.48;4.55;;;;;;;;;;4961785;28;20493;-72
2021/08/05 09:38:48;;;;;;;17.08;5.20;;;;;;;;;;4962135;28;20108;-71
2021/08/05 09:41:13;;;;;;;7.68;4.13;;;;;;;;;;4963637;28;20109;-71
2021/08/05 09:43:38;;;;;;;7.73;3.37;;;;;;;;;;4963456;28;20130;-71
2021/08/05 09:46:04;;;;;;;7.47;3.97;;;;;;;;;;4962423;28;20042;-70
2021/08/05 09:48:43;;;;;;;7.28;3.75;;;;;;;;;;4961413;28;20137;-71
2021/08/05 09:51:10;;;;;;;6.45;3.63;;;;;;;;;;4963081;28;20476;-72
2021/08/05 09:53:52;;;;;;;7.50;3.80;;;;;;;;;;4963997;28;20431;-70
2021/08/05 09:56:17;;;;;;;8.55;4.88;;;;;;;;;;4961882;28;20425;-71
2021/08/05 09:58:43;;;;;;;10.13;4.07;;;;;;;;;;4962881;28;20026;-70
2021/08/05 10:01:08;;;;;;;7.07;3.90;;;;;;;;;;4956492;28;20057;-71
2021/08/05 10:03:34;;;;;;;6.15;3.60;;;;;;;;;;4961625;28;20070;-71
2021/08/05 10:06:02;;;;;;;10.90;4.30;;;;;;;;;;4960056;28;20255;-71
2021/08/05 10:08:34;;;;;;;6.32;3.60;;;;;;;;;;4944110;28;20026;-71
2021/08/05 10:10:59;;;;;;;9.82;3.63;;;;;;;;;;4961897;28;20546;-72
2021/08/05 10:13:35;;;;;;;10.17;4.00;;;;;;;;;;4961386;28;20037;-70
2021/08/05 10:16:05;;;;;;;7.83;4.10;;;;;;;;;;4961194;28;20038;-70
2021/08/05 10:18:31;;;;;;;8.65;3.97;;;;;;;;;;4944132;28;20283;-70
2021/08/05 10:21:00;;;;;;;6.65;3.60;;;;;;;;;;4965365;28;20065;-72
2021/08/05 10:23:26;;;;;;;6.07;3.83;;;;;;;;;;4960525;28;20526;-72
2021/08/05 10:25:53;;;;;;;10.07;4.18;;;;;;;;;;4942823;28;20534;-69
2021/08/05 10:28:19;;;;;;;7.05;3.70;;;;;;;;;;4958852;28;20049;-70
2021/08/05 10:30:44;;;;;;;6.72;3.40;;;;;;;;;;4963456;28;20030;-71
2021/08/05 10:33:10;;;;;;;7.60;3.27;;;;;;;;;;4927567;28;20042;-73
2021/08/05 10:35:36;;;;;;;8.13;4.25;;;;;;;;;;4945085;28;20022;-72
2021/08/05 10:38:03;;;;;;;5.72;3.47;;;;;;;;;;4943241;28;20057;-70
2021/08/05 10:40:28;;;;;;;5.78;3.67;;;;;;;;;;4940739;28;20484;-71
2021/08/05 10:42:55;;;;;;;6.63;3.80;;;;;;;;;;4958911;28;20195;-70
2021/08/05 10:45:21;;;;;;;6.00;3.33;;;;;;;;;;4942090;28;20713;-70
2021/08/05 10:47:48;;;;;;;7.00;3.70;;;;;;;;;;4962745;28;20108;-73
2021/08/05 10:50:17;;;;;;;6.85;4.07;;;;;;;;;;4931948;28;20324;-74
2021/08/05 10:52:49;;;;;;;6.28;3.53;;;;;;;;;;4962321;28;20049;-73
2021/08/05 10:55:17;;;;;;;10.45;4.13;;;;;;;;;;4958921;28;20244;-72
2021/08/05 10:57:43;;;;;;;8.65;3.72;;;;;;;;;;4957351;28;20301;-72
2021/08/05 11:00:11;;;;;;;8.37;4.07;;;;;;;;;;4957961;28;20462;-71
2021/08/05 11:02:45;;;;;;;7.88;3.65;;;;;;;;;;4953778;28;20624;-72
2021/08/05 11:05:31;;;;;;;7.60;3.60;;;;;;;;;;4958355;28;20257;-74
2021/08/05 11:08:24;;;;;;;6.90;3.33;;;;;;;;;;4943580;28;20034;-73
2021/08/05 11:10:49;;;;;;;6.40;3.33;;;;;;;;;;4957325;28;20535;-73
2021/08/05 11:13:16;;;;;;;6.30;3.23;;;;;;;;;;4943785;28;20154;-74
2021/08/05 11:15:41;;;;;;;6.85;3.22;;;;;;;;;;4961489;28;20035;-72
2021/08/05 11:18:16;;;;;;;5.47;3.10;;;;;;;;;;4959431;28;20077;-73
2021/08/05 11:20:51;;;;;;;3.83;2.38;;;;;;;;;;4945965;28;20351;-72
2021/08/05 11:23:25;;;;;;;5.00;2.80;;;;;;;;;;4961446;28;20158;-73
2021/08/05 11:25:52;;;;;;;7.10;3.10;;;;;;;;;;4945876;28;20043;-71
2021/08/05 11:28:19;;;;;;;5.57;3.10;;;;;;;;;;4964471;28;20510;-72
2021/08/05 11:30:49;;;;;;;5.22;2.72;;;;;;;;;;4966136;28;20030;-71
2021/08/05 11:33:33;;;;;;;5.03;2.70;;;;;;;;;;4963978;28;20030;-70
2021/08/05 11:36:14;;;;;;;6.85;3.05;;;;;;;;;;4967078;28;20094;-74
2021/08/05 11:38:56;;;;;;;5.15;2.80;;;;;;;;;;4963004;28;20026;-73
2021/08/05 11:41:41;;;;;;;7.15;2.70;;;;;;;;;;4964064;28;20422;-74
2021/08/05 11:44:18;;;;;;;7.05;3.08;;;;;;;;;;4949411;28;20041;-73
2021/08/05 11:47:04;;;;;;;7.18;2.97;;;;;;;;;;4963878;28;20086;-74
2021/08/05 11:49:31;;;;;;;5.60;2.83;;;;;;;;;;4966386;28;20056;-74
2021/08/05 11:51:56;;;;;;;;;;;;;;;;;;4963096;28;20113;-73
2021/08/05 11:54:21;;;;;;;;;;;;;;;;;;4965962;28;20318;-74
2021/08/05 11:57:03;;;;;;;4.03;2.37;;;;;;;;;;4965843;28;20024;-73
2021/08/05 11:59:39;;;;;;;6.88;2.65;;;;;;;;;;4963445;28;20019;-74
2021/08/05 12:02:07;;;;;;;6.00;2.85;;;;;;;;;;4963677;28;20030;-73
2021/08/05 12:04:32;;;;;;;9.43;2.85;;;;;;;;;;4950627;28;20456;-74
2021/08/05 12:07:21;;;;;;;4.43;2.70;;;;;;;;;;4947022;28;20026;-75
2021/08/05 12:09:50;;;;;;;5.53;2.78;;;;;;;;;;4962193;28;20053;-74
2021/08/05 12:12:15;;;;;;;4.85;2.65;;;;;;;;;;4963760;28;20413;-74
2021/08/05 12:14:47;;;;;;;8.07;2.80;;;;;;;;;;4964351;28;20321;-74
2021/08/05 12:17:13;;;;;;;6.38;2.72;;;;;;;;;;4964566;28;20391;-74
2021/08/05 12:19:46;;;;;;;7.70;2.77;;;;;;;;;;4966763;28;20031;-74
2021/08/05 12:22:14;;;;;;;4.60;2.78;;;;;;;;;;4960808;28;20034;-74
2021/08/05 12:24:45;;;;;;;7.57;2.60;;;;;;;;;;4960510;28;20042;-73
2021/08/05 12:27:14;;;;;;;6.90;2.80;;;;;;;;;;4965515;28;20030;-73
2021/08/05 12:29:42;;;;;;;4.65;2.50;;;;;;;;;;4964335;28;20663;-73
2021/08/05 12:32:07;;;;;;;5.15;2.70;;;;;;;;;;4962533;28;20026;-73
2021/08/05 12:34:32;;;;;;;5.30;2.60;;;;;;;;;;4962167;28;20089;-73
2021/08/05 12:37:12;;;;;;;9.50;2.70;;;;;;;;;;4965434;28;20047;-73
2021/08/05 12:39:38;;;;;;;4.20;2.47;;;;;;;;;;4946045;28;20038;-75
2021/08/05 12:42:03;;;;;;;4.40;2.67;;;;;;;;;;4962018;28;20043;-74
2021/08/05 12:44:31;;;;;;;4.67;2.60;;;;;;;;;;4967404;28;20518;-75
2021/08/05 12:46:58;;;;;;;6.65;2.72;;;;;;;;;;4966768;28;20708;-74
2021/08/05 12:49:23;;;;;;;;;;;;;;;;;;4943960;28;20041;-75
2021/08/05 12:51:55;;;;;;;4.27;2.53;;;;;;;;;;4962877;28;19913;-76
2021/08/05 12:54:21;;;;;;;6.53;2.80;;;;;;;;;;4937367;28;20030;-75
2021/08/05 12:56:48;;;;;;;4.97;2.45;;;;;;;;;;4954770;28;20314;-76
2021/08/05 12:59:13;;;;;;;;;;;;;;;;;;4967229;28;20039;-75
2021/08/05 13:01:38;;;;;;;;;;;;;;;;;;4948778;28;19944;-75
2021/08/05 13:04:04;;;;;;;4.20;2.07;;;;;;;;;;4963776;28;19917;-75
2021/08/05 13:06:50;;;;;;;5.90;2.47;;;;;;;;;;4965037;28;20018;-76
2021/08/05 13:09:15;;;;;;;5.20;2.40;;;;;;;;;;4962863;28;20451;-75
2021/08/05 13:11:41;;;;;;;4.23;2.20;;;;;;;;;;4964832;28;20847;-78
2021/08/05 13:14:06;;;;;;;4.07;2.13;;;;;;;;;;4958015;28;20043;-74
2021/08/05 13:16:36;;;;;;;5.13;2.27;;;;;;;;;;4964083;28;20416;-75
2021/08/05 13:19:04;;;;;;;5.50;2.25;;;;;;;;;;4947253;28;20436;-74
2021/08/05 13:21:30;;;;;;;3.25;2.00;;;;;;;;;;4961461;28;20085;-76
2021/08/05 13:24:11;;;;;;;4.25;2.15;;;;;;;;;;4964098;28;20578;-72
2021/08/05 13:26:36;;;;;;;4.75;2.20;;;;;;;;;;4964653;28;20054;-74
2021/08/05 13:29:02;;;;;;;4.00;2.43;;;;;;;;;;4963274;28;20177;-74
2021/08/05 13:31:28;;;;;;;4.10;2.08;;;;;;;;;;4961908;28;20450;-73
2021/08/05 13:34:09;;;;;;;3.80;2.17;;;;;;;;;;4965195;28;20074;-73
2021/08/05 13:36:38;;;;;;;4.25;2.10;;;;;;;;;;4961102;28;20035;-71
2021/08/05 13:39:04;;;;;;;3.95;2.20;;;;;;;;;;4962046;28;20148;-72
2021/08/05 13:41:30;;;;;;;3.55;2.00;;;;;;;;;;4963990;28;20026;-71
2021/08/05 13:43:57;;;;;;;3.93;1.97;;;;;;;;;;4946455;28;20241;-72
2021/08/05 13:46:28;;;;;;;3.08;1.90;;;;;;;;;;4966814;28;20062;-73
2021/08/05 13:48:56;;;;;;;5.00;2.20;;;;;;;;;;4961479;28;20066;-72
2021/08/05 13:51:22;;;;;;;3.17;2.00;;;;;;;;;;4962014;28;20027;-73
2021/08/05 13:53:47;;;;;;;3.07;1.80;;;;;;;;;;4960999;28;20900;-72
2021/08/05 13:56:13;;;;;;;3.20;2.00;;;;;;;;;;4960005;28;20277;-72
2021/08/05 13:58:38;;;;;;;4.93;2.10;;;;;;;;;;4961842;28;20019;-73
2021/08/05 14:01:04;;;;;;;3.23;1.80;;;;;;;;;;4963340;28;20037;-74
2021/08/05 14:03:29;;;;;;;3.90;2.10;;;;;;;;;;4963432;28;20817;-74
2021/08/05 14:05:55;;;;;;;5.23;1.90;;;;;;;;;;4962313;28;20158;-74
2021/08/05 14:08:20;;;;;;;3.73;1.90;;;;;;;;;;4960344;28;20035;-73
2021/08/05 14:10:45;;;;;;;3.60;2.10;;;;;;;;;;4963378;28;20031;-72
2021/08/05 14:13:11;;;;;;;4.37;2.10;;;;;;;;;;4963722;28;20030;-74
2021/08/05 14:15:36;;;;;;;2.93;1.80;;;;;;;;;;4943549;28;20026;-74
2021/08/05 14:18:02;;;;;;;5.50;2.10;;;;;;;;;;4962263;28;20862;-73
2021/08/05 14:20:27;;;;;;;6.15;2.13;;;;;;;;;;4959775;28;20380;-73
2021/08/05 14:22:53;;;;;;;3.47;2.07;;;;;;;;;;4958373;28;20030;-73
2021/08/05 14:25:19;;;;;;;;;;;;;;;;;;4961644;28;20195;-74
2021/08/05 14:27:46;;;;;;;3.63;2.10;;;;;;;;;;4959204;28;19910;-71
2021/08/05 14:30:12;;;;;;;4.20;1.97;;;;;;;;;;4956998;28;20037;-71
2021/08/05 14:32:38;;;;;;;3.93;2.07;;;;;;;;;;4956279;28;20038;-72
2021/08/05 14:35:04;;;;;;;4.07;1.80;;;;;;;;;;4960910;28;20327;-73
2021/08/05 14:37:29;;;;;;;3.30;2.10;;;;;;;;;;4935204;28;20529;-72
2021/08/05 14:39:55;;;;;;;6.03;2.20;;;;;;;;;;4943354;28;20054;-73
2021/08/05 14:42:21;;;;;;;3.83;1.83;;;;;;;;;;4943271;28;20057;-74
2021/08/05 14:44:46;;;;;;;3.05;2.00;;;;;;;;;;4927414;28;20117;-74
2021/08/05 14:47:12;;;;;;;5.40;2.20;;;;;;;;;;4940543;28;20453;-75